sensor_id;sensor_type;location;lat;lon;timestamp;temperature;humidity
69281;SHT31;56392;51.082;17.080;2024-02-23T00:01:15;9.78;88.36
69281;SHT31;56392;51.082;17.080;2024-02-23T00:06:39;9.84;88.27
69281;SHT31;56392;51.082;17.080;2024-02-23T00:12:03;9.89;87.89
69281;SHT31;56392;51.082;17.080;2024-02-23T00:17:26;9.91;87.74
69281;SHT31;56392;51.082;17.080;2024-02-23T00:22:50;9.98;87.34
69281;SHT31;56392;51.082;17.080;2024-02-23T00:28:14;10.03;86.92
69281;SHT31;56392;51.082;17.080;2024-02-23T00:33:37;10.09;87.05
69281;SHT31;56392;51.082;17.080;2024-02-23T00:39:06;10.13;86.81
69281;SHT31;56392;51.082;17.080;2024-02-23T00:44:31;10.20;86.54
69281;SHT31;56392;51.082;17.080;2024-02-23T00:49:54;10.25;86.70
69281;SHT31;56392;51.082;17.080;2024-02-23T00:55:18;10.26;86.51
69281;SHT31;56392;51.082;17.080;2024-02-23T01:00:41;10.26;86.41
69281;SHT31;56392;51.082;17.080;2024-02-23T01:06:04;10.32;86.10
69281;SHT31;56392;51.082;17.080;2024-02-23T01:11:29;10.33;86.08
69281;SHT31;56392;51.082;17.080;2024-02-23T01:16:52;10.32;85.62
69281;SHT31;56392;51.082;17.080;2024-02-23T01:22:15;10.33;85.38
69281;SHT31;56392;51.082;17.080;2024-02-23T01:27:39;10.30;85.29
69281;SHT31;56392;51.082;17.080;2024-02-23T01:33:03;10.35;85.00
69281;SHT31;56392;51.082;17.080;2024-02-23T01:38:26;10.29;84.62
69281;SHT31;56392;51.082;17.080;2024-02-23T01:43:54;10.28;84.69
69281;SHT31;56392;51.082;17.080;2024-02-23T01:49:18;10.30;84.56
69281;SHT31;56392;51.082;17.080;2024-02-23T01:54:41;10.36;84.31
69281;SHT31;56392;51.082;17.080;2024-02-23T02:00:07;10.40;83.88
69281;SHT31;56392;51.082;17.080;2024-02-23T02:05:32;10.42;83.85
69281;SHT31;56392;51.082;17.080;2024-02-23T02:10:55;10.39;83.39
69281;SHT31;56392;51.082;17.080;2024-02-23T02:16:19;10.39;82.91
69281;SHT31;56392;51.082;17.080;2024-02-23T02:21:42;10.40;82.68
69281;SHT31;56392;51.082;17.080;2024-02-23T02:27:05;10.37;82.51
69281;SHT31;56392;51.082;17.080;2024-02-23T02:32:30;10.36;82.38
69281;SHT31;56392;51.082;17.080;2024-02-23T02:37:53;10.32;82.55
69281;SHT31;56392;51.082;17.080;2024-02-23T02:43:17;10.32;82.49
69281;SHT31;56392;51.082;17.080;2024-02-23T02:48:41;10.23;82.78
69281;SHT31;56392;51.082;17.080;2024-02-23T02:54:04;10.22;82.69
69281;SHT31;56392;51.082;17.080;2024-02-23T02:59:27;10.19;82.57
69281;SHT31;56392;51.082;17.080;2024-02-23T03:04:52;10.22;82.52
69281;SHT31;56392;51.082;17.080;2024-02-23T03:10:17;10.23;82.39
69281;SHT31;56392;51.082;17.080;2024-02-23T03:15:40;10.29;82.32
69281;SHT31;56392;51.082;17.080;2024-02-23T03:21:07;10.29;82.22
69281;SHT31;56392;51.082;17.080;2024-02-23T03:26:31;10.33;82.01
69281;SHT31;56392;51.082;17.080;2024-02-23T03:31:54;10.36;81.77
69281;SHT31;56392;51.082;17.080;2024-02-23T03:37:18;10.37;81.98
69281;SHT31;56392;51.082;17.080;2024-02-23T03:42:41;10.32;82.32
69281;SHT31;56392;51.082;17.080;2024-02-23T03:48:05;10.30;82.69
69281;SHT31;56392;51.082;17.080;2024-02-23T03:53:30;10.29;82.54
69281;SHT31;56392;51.082;17.080;2024-02-23T03:58:53;10.25;83.09
69281;SHT31;56392;51.082;17.080;2024-02-23T04:04:17;10.19;83.77
69281;SHT31;56392;51.082;17.080;2024-02-23T04:09:41;10.16;83.77
69281;SHT31;56392;51.082;17.080;2024-02-23T04:15:05;10.15;83.80
69281;SHT31;56392;51.082;17.080;2024-02-23T04:20:28;10.12;83.84
69281;SHT31;56392;51.082;17.080;2024-02-23T04:25:53;10.15;83.26
69281;SHT31;56392;51.082;17.080;2024-02-23T04:31:16;10.23;82.57
69281;SHT31;56392;51.082;17.080;2024-02-23T04:36:39;10.25;82.25
69281;SHT31;56392;51.082;17.080;2024-02-23T04:42:04;10.25;82.09
69281;SHT31;56392;51.082;17.080;2024-02-23T04:47:30;10.26;81.62
69281;SHT31;56392;51.082;17.080;2024-02-23T04:52:54;10.28;81.64
69281;SHT31;56392;51.082;17.080;2024-02-23T04:58:18;10.29;81.48
69281;SHT31;56392;51.082;17.080;2024-02-23T05:03:42;10.33;81.07
69281;SHT31;56392;51.082;17.080;2024-02-23T05:09:05;10.37;81.07
69281;SHT31;56392;51.082;17.080;2024-02-23T05:14:32;10.36;81.12
69281;SHT31;56392;51.082;17.080;2024-02-23T05:19:55;10.39;81.33
69281;SHT31;56392;51.082;17.080;2024-02-23T05:25:18;10.40;81.40
69281;SHT31;56392;51.082;17.080;2024-02-23T05:30:42;10.36;81.49
69281;SHT31;56392;51.082;17.080;2024-02-23T05:36:06;10.32;81.70
69281;SHT31;56392;51.082;17.080;2024-02-23T05:41:29;10.28;82.06
69281;SHT31;56392;51.082;17.080;2024-02-23T05:46:54;10.25;82.28
69281;SHT31;56392;51.082;17.080;2024-02-23T05:52:17;10.22;82.45
69281;SHT31;56392;51.082;17.080;2024-02-23T05:57:40;10.17;82.52
69281;SHT31;56392;51.082;17.080;2024-02-23T06:03:05;10.22;82.28
69281;SHT31;56392;51.082;17.080;2024-02-23T06:08:28;10.17;82.42
69281;SHT31;56392;51.082;17.080;2024-02-23T06:13:51;10.15;82.64
69281;SHT31;56392;51.082;17.080;2024-02-23T06:19:16;10.15;82.71
69281;SHT31;56392;51.082;17.080;2024-02-23T06:24:41;10.10;83.01
69281;SHT31;56392;51.082;17.080;2024-02-23T06:30:06;10.15;82.37
69281;SHT31;56392;51.082;17.080;2024-02-23T06:35:30;10.23;82.15
69281;SHT31;56392;51.082;17.080;2024-02-23T06:40:53;10.26;81.52
69281;SHT31;56392;51.082;17.080;2024-02-23T06:46:19;10.32;80.95
69281;SHT31;56392;51.082;17.080;2024-02-23T06:51:44;10.40;80.49
69281;SHT31;56392;51.082;17.080;2024-02-23T06:57:07;10.46;79.80
69281;SHT31;56392;51.082;17.080;2024-02-23T07:02:30;10.47;79.80
69281;SHT31;56392;51.082;17.080;2024-02-23T07:08:02;10.55;79.30
69281;SHT31;56392;51.082;17.080;2024-02-23T07:13:25;10.63;78.66
69281;SHT31;56392;51.082;17.080;2024-02-23T07:18:49;10.66;78.26
69281;SHT31;56392;51.082;17.080;2024-02-23T07:24:13;10.73;78.00
69281;SHT31;56392;51.082;17.080;2024-02-23T07:29:37;10.77;77.75
69281;SHT31;56392;51.082;17.080;2024-02-23T07:35:00;10.85;77.20
69281;SHT31;56392;51.082;17.080;2024-02-23T07:40:26;10.94;76.98
69281;SHT31;56392;51.082;17.080;2024-02-23T07:45:50;11.00;76.47
69281;SHT31;56392;51.082;17.080;2024-02-23T07:51:13;11.12;75.97
69281;SHT31;56392;51.082;17.080;2024-02-23T07:56:37;11.32;75.15
69281;SHT31;56392;51.082;17.080;2024-02-23T08:02:01;11.55;74.27
69281;SHT31;56392;51.082;17.080;2024-02-23T08:07:24;11.80;73.03
69281;SHT31;56392;51.082;17.080;2024-02-23T08:12:48;12.16;71.76
69281;SHT31;56392;51.082;17.080;2024-02-23T08:18:14;12.49;71.09
69281;SHT31;56392;51.082;17.080;2024-02-23T08:23:37;12.96;70.24
69281;SHT31;56392;51.082;17.080;2024-02-23T08:29:02;13.44;69.16
69281;SHT31;56392;51.082;17.080;2024-02-23T08:34:26;13.50;69.58
69281;SHT31;56392;51.082;17.080;2024-02-23T08:39:49;13.37;69.23
69281;SHT31;56392;51.082;17.080;2024-02-23T08:45:13;13.16;70.75
69281;SHT31;56392;51.082;17.080;2024-02-23T08:50:37;12.93;71.06
69281;SHT31;56392;51.082;17.080;2024-02-23T08:56:00;12.24;61.23
69281;SHT31;56392;51.082;17.080;2024-02-23T09:01:25;11.87;60.70
69281;SHT31;56392;51.082;17.080;2024-02-23T09:06:48;11.66;60.75
69281;SHT31;56392;51.082;17.080;2024-02-23T09:12:15;11.65;60.32
69281;SHT31;56392;51.082;17.080;2024-02-23T09:17:41;11.77;60.17
69281;SHT31;56392;51.082;17.080;2024-02-23T09:23:04;12.03;59.64
69281;SHT31;56392;51.082;17.080;2024-02-23T09:28:29;12.10;58.67
69281;SHT31;56392;51.082;17.080;2024-02-23T09:33:54;12.44;58.72
69281;SHT31;56392;51.082;17.080;2024-02-23T09:39:17;12.72;56.70
69281;SHT31;56392;51.082;17.080;2024-02-23T09:44:44;12.92;57.71
69281;SHT31;56392;51.082;17.080;2024-02-23T09:50:11;12.93;57.65
69281;SHT31;56392;51.082;17.080;2024-02-23T09:55:35;12.77;56.45
69281;SHT31;56392;51.082;17.080;2024-02-23T10:00:59;12.67;56.98
69281;SHT31;56392;51.082;17.080;2024-02-23T10:06:24;12.62;56.57
69281;SHT31;56392;51.082;17.080;2024-02-23T10:11:52;12.55;55.77
69281;SHT31;56392;51.082;17.080;2024-02-23T10:17:15;12.65;55.87
69281;SHT31;56392;51.082;17.080;2024-02-23T10:22:39;12.96;55.50
69281;SHT31;56392;51.082;17.080;2024-02-23T10:28:02;13.12;54.85
69281;SHT31;56392;51.082;17.080;2024-02-23T10:33:26;13.10;55.24
69281;SHT31;56392;51.082;17.080;2024-02-23T10:38:52;12.88;58.09
69281;SHT31;56392;51.082;17.080;2024-02-23T10:44:18;12.57;61.33
69281;SHT31;56392;51.082;17.080;2024-02-23T10:49:42;12.37;64.95
69281;SHT31;56392;51.082;17.080;2024-02-23T10:55:09;12.47;63.53
69281;SHT31;56392;51.082;17.080;2024-02-23T11:00:32;12.69;62.59
69281;SHT31;56392;51.082;17.080;2024-02-23T11:05:56;12.95;62.45
69281;SHT31;56392;51.082;17.080;2024-02-23T11:11:21;13.20;59.43
69281;SHT31;56392;51.082;17.080;2024-02-23T11:16:51;13.40;59.45
69281;SHT31;56392;51.082;17.080;2024-02-23T11:22:14;13.61;58.89
69281;SHT31;56392;51.082;17.080;2024-02-23T11:27:39;14.07;56.43
69281;SHT31;56392;51.082;17.080;2024-02-23T11:33:08;14.26;56.04
69281;SHT31;56392;51.082;17.080;2024-02-23T11:38:32;14.14;56.30
69281;SHT31;56392;51.082;17.080;2024-02-23T11:43:57;14.08;56.41
69281;SHT31;56392;51.082;17.080;2024-02-23T11:49:20;14.19;57.90
69281;SHT31;56392;51.082;17.080;2024-02-23T11:54:44;14.02;57.12
69281;SHT31;56392;51.082;17.080;2024-02-23T12:00:09;13.77;56.08
69281;SHT31;56392;51.082;17.080;2024-02-23T12:05:33;13.47;58.20
69281;SHT31;56392;51.082;17.080;2024-02-23T12:10:57;13.16;58.65
69281;SHT31;56392;51.082;17.080;2024-02-23T12:16:25;12.92;58.85
69281;SHT31;56392;51.082;17.080;2024-02-23T12:21:49;12.75;59.04
69281;SHT31;56392;51.082;17.080;2024-02-23T12:27:16;12.64;58.90
69281;SHT31;56392;51.082;17.080;2024-02-23T12:32:41;12.54;59.80
69281;SHT31;56392;51.082;17.080;2024-02-23T12:38:04;12.40;59.86
69281;SHT31;56392;51.082;17.080;2024-02-23T12:43:27;12.30;60.77
69281;SHT31;56392;51.082;17.080;2024-02-23T12:48:52;12.31;63.32
69281;SHT31;56392;51.082;17.080;2024-02-23T12:54:16;12.26;62.69
69281;SHT31;56392;51.082;17.080;2024-02-23T12:59:39;12.09;62.57
69281;SHT31;56392;51.082;17.080;2024-02-23T13:05:04;12.09;62.37
69281;SHT31;56392;51.082;17.080;2024-02-23T13:10:27;11.94;62.80
69281;SHT31;56392;51.082;17.080;2024-02-23T13:15:53;11.97;63.48
69281;SHT31;56392;51.082;17.080;2024-02-23T13:21:18;12.03;63.79
69281;SHT31;56392;51.082;17.080;2024-02-23T13:26:41;11.76;65.21
69281;SHT31;56392;51.082;17.080;2024-02-23T13:32:05;11.22;66.30
69281;SHT31;56392;51.082;17.080;2024-02-23T13:37:30;11.11;67.21
69281;SHT31;56392;51.082;17.080;2024-02-23T13:42:53;11.08;67.32
69281;SHT31;56392;51.082;17.080;2024-02-23T13:48:17;10.98;67.32
69281;SHT31;56392;51.082;17.080;2024-02-23T13:53:42;10.98;66.63
69281;SHT31;56392;51.082;17.080;2024-02-23T13:59:05;10.90;67.12
69281;SHT31;56392;51.082;17.080;2024-02-23T14:04:28;10.81;67.77
69281;SHT31;56392;51.082;17.080;2024-02-23T14:09:53;10.66;68.01
69281;SHT31;56392;51.082;17.080;2024-02-23T14:15:16;10.74;67.42
69281;SHT31;56392;51.082;17.080;2024-02-23T14:20:40;10.84;67.96
69281;SHT31;56392;51.082;17.080;2024-02-23T14:26:05;11.00;68.58
69281;SHT31;56392;51.082;17.080;2024-02-23T14:31:29;11.01;68.38
69281;SHT31;56392;51.082;17.080;2024-02-23T14:36:55;10.84;68.05
69281;SHT31;56392;51.082;17.080;2024-02-23T14:42:19;10.66;66.83
69281;SHT31;56392;51.082;17.080;2024-02-23T14:47:43;10.70;67.10
69281;SHT31;56392;51.082;17.080;2024-02-23T14:53:06;10.59;67.81
69281;SHT31;56392;51.082;17.080;2024-02-23T14:58:31;10.50;68.42
69281;SHT31;56392;51.082;17.080;2024-02-23T15:03:57;10.74;68.60
69281;SHT31;56392;51.082;17.080;2024-02-23T15:09:20;10.77;68.89
69281;SHT31;56392;51.082;17.080;2024-02-23T15:14:44;10.74;68.41
69281;SHT31;56392;51.082;17.080;2024-02-23T15:20:08;10.77;68.17
69281;SHT31;56392;51.082;17.080;2024-02-23T15:25:32;10.61;67.62
69281;SHT31;56392;51.082;17.080;2024-02-23T15:30:57;10.29;68.53
69281;SHT31;56392;51.082;17.080;2024-02-23T15:36:20;10.03;69.11
69281;SHT31;56392;51.082;17.080;2024-02-23T15:41:44;9.94;69.88
69281;SHT31;56392;51.082;17.080;2024-02-23T15:47:09;9.62;70.47
69281;SHT31;56392;51.082;17.080;2024-02-23T15:52:32;9.55;71.18
69281;SHT31;56392;51.082;17.080;2024-02-23T15:57:55;9.47;71.14
69281;SHT31;56392;51.082;17.080;2024-02-23T16:03:19;9.38;71.18
69281;SHT31;56392;51.082;17.080;2024-02-23T16:08:44;9.37;71.28
69281;SHT31;56392;51.082;17.080;2024-02-23T16:14:08;9.20;71.86
69281;SHT31;56392;51.082;17.080;2024-02-23T16:19:32;9.03;72.89
69281;SHT31;56392;51.082;17.080;2024-02-23T16:24:55;9.02;73.62
69281;SHT31;56392;51.082;17.080;2024-02-23T16:30:18;8.86;74.39
69281;SHT31;56392;51.082;17.080;2024-02-23T16:35:43;8.76;74.50
69281;SHT31;56392;51.082;17.080;2024-02-23T16:41:07;8.79;74.65
69281;SHT31;56392;51.082;17.080;2024-02-23T16:46:30;8.80;74.76
69281;SHT31;56392;51.082;17.080;2024-02-23T16:51:55;8.80;74.60
69281;SHT31;56392;51.082;17.080;2024-02-23T16:57:18;8.80;74.82
69281;SHT31;56392;51.082;17.080;2024-02-23T17:02:41;8.80;75.73
69281;SHT31;56392;51.082;17.080;2024-02-23T17:08:06;8.83;75.48
69281;SHT31;56392;51.082;17.080;2024-02-23T17:13:29;8.79;76.08
69281;SHT31;56392;51.082;17.080;2024-02-23T17:18:52;8.79;75.97
69281;SHT31;56392;51.082;17.080;2024-02-23T17:24:17;8.75;75.60
69281;SHT31;56392;51.082;17.080;2024-02-23T17:29:40;8.69;76.11
69281;SHT31;56392;51.082;17.080;2024-02-23T17:35:04;8.49;77.09
69281;SHT31;56392;51.082;17.080;2024-02-23T17:40:29;8.41;77.55
69281;SHT31;56392;51.082;17.080;2024-02-23T17:45:52;8.38;78.02
69281;SHT31;56392;51.082;17.080;2024-02-23T17:51:15;8.28;78.36
69281;SHT31;56392;51.082;17.080;2024-02-23T17:56:39;8.23;79.25
69281;SHT31;56392;51.082;17.080;2024-02-23T18:02:03;8.04;81.07
69281;SHT31;56392;51.082;17.080;2024-02-23T18:07:28;7.93;81.85
69281;SHT31;56392;51.082;17.080;2024-02-23T18:12:54;7.94;82.40
69281;SHT31;56392;51.082;17.080;2024-02-23T18:18:17;7.94;81.83
69281;SHT31;56392;51.082;17.080;2024-02-23T18:23:40;7.84;82.87
69281;SHT31;56392;51.082;17.080;2024-02-23T18:29:05;7.82;83.43
69281;SHT31;56392;51.082;17.080;2024-02-23T18:34:29;7.62;84.81
69281;SHT31;56392;51.082;17.080;2024-02-23T18:39:52;7.51;85.82
69281;SHT31;56392;51.082;17.080;2024-02-23T18:45:17;7.49;85.86
69281;SHT31;56392;51.082;17.080;2024-02-23T18:50:42;7.42;86.06
69281;SHT31;56392;51.082;17.080;2024-02-23T18:56:07;7.48;86.56
69281;SHT31;56392;51.082;17.080;2024-02-23T19:01:32;7.42;88.35
69281;SHT31;56392;51.082;17.080;2024-02-23T19:06:55;7.43;88.95
69281;SHT31;56392;51.082;17.080;2024-02-23T19:12:18;7.43;89.34
69281;SHT31;56392;51.082;17.080;2024-02-23T19:17:42;7.42;89.66
69281;SHT31;56392;51.082;17.080;2024-02-23T19:23:06;7.38;89.77
69281;SHT31;56392;51.082;17.080;2024-02-23T19:28:29;7.26;90.77
69281;SHT31;56392;51.082;17.080;2024-02-23T19:33:54;7.25;91.69
69281;SHT31;56392;51.082;17.080;2024-02-23T19:39:18;7.16;91.85
69281;SHT31;56392;51.082;17.080;2024-02-23T19:44:41;7.16;92.09
69281;SHT31;56392;51.082;17.080;2024-02-23T19:50:07;7.11;92.29
69281;SHT31;56392;51.082;17.080;2024-02-23T19:55:30;7.05;92.91
69281;SHT31;56392;51.082;17.080;2024-02-23T20:00:53;6.98;93.11
69281;SHT31;56392;51.082;17.080;2024-02-23T20:06:18;7.00;93.32
69281;SHT31;56392;51.082;17.080;2024-02-23T20:11:41;6.97;93.39
69281;SHT31;56392;51.082;17.080;2024-02-23T20:17:04;6.94;93.41
69281;SHT31;56392;51.082;17.080;2024-02-23T20:22:29;6.92;93.49
69281;SHT31;56392;51.082;17.080;2024-02-23T20:27:52;6.94;93.87
69281;SHT31;56392;51.082;17.080;2024-02-23T20:33:16;7.00;94.25
69281;SHT31;56392;51.082;17.080;2024-02-23T20:38:40;7.04;94.40
69281;SHT31;56392;51.082;17.080;2024-02-23T20:44:04;7.00;94.16
69281;SHT31;56392;51.082;17.080;2024-02-23T20:49:27;6.92;94.33
69281;SHT31;56392;51.082;17.080;2024-02-23T20:54:53;6.92;94.32
69281;SHT31;56392;51.082;17.080;2024-02-23T21:00:17;6.87;94.56
69281;SHT31;56392;51.082;17.080;2024-02-23T21:05:41;6.87;94.65
69281;SHT31;56392;51.082;17.080;2024-02-23T21:11:05;6.97;94.73
69281;SHT31;56392;51.082;17.080;2024-02-23T21:16:29;7.04;94.90
69281;SHT31;56392;51.082;17.080;2024-02-23T21:21:52;6.92;94.97
69281;SHT31;56392;51.082;17.080;2024-02-23T21:27:17;6.90;95.31
69281;SHT31;56392;51.082;17.080;2024-02-23T21:32:41;6.94;95.70
69281;SHT31;56392;51.082;17.080;2024-02-23T21:38:04;6.91;95.70
69281;SHT31;56392;51.082;17.080;2024-02-23T21:43:31;6.87;95.72
69281;SHT31;56392;51.082;17.080;2024-02-23T21:48:56;6.83;95.81
69281;SHT31;56392;51.082;17.080;2024-02-23T21:54:19;6.84;96.04
69281;SHT31;56392;51.082;17.080;2024-02-23T21:59:45;6.80;96.16
69281;SHT31;56392;51.082;17.080;2024-02-23T22:05:09;6.74;96.06
69281;SHT31;56392;51.082;17.080;2024-02-23T22:10:33;6.76;96.20
69281;SHT31;56392;51.082;17.080;2024-02-23T22:15:59;6.77;96.23
69281;SHT31;56392;51.082;17.080;2024-02-23T22:21:22;6.79;96.16
69281;SHT31;56392;51.082;17.080;2024-02-23T22:26:46;6.85;96.20
69281;SHT31;56392;51.082;17.080;2024-02-23T22:32:11;6.90;96.30
69281;SHT31;56392;51.082;17.080;2024-02-23T22:37:35;6.90;96.33
69281;SHT31;56392;51.082;17.080;2024-02-23T22:42:59;6.85;96.23
69281;SHT31;56392;51.082;17.080;2024-02-23T22:48:24;6.83;96.30
69281;SHT31;56392;51.082;17.080;2024-02-23T22:53:48;6.81;96.30
69281;SHT31;56392;51.082;17.080;2024-02-23T22:59:11;6.88;96.47
69281;SHT31;56392;51.082;17.080;2024-02-23T23:04:36;6.85;96.47
69281;SHT31;56392;51.082;17.080;2024-02-23T23:09:59;6.83;96.43
69281;SHT31;56392;51.082;17.080;2024-02-23T23:15:23;6.80;96.43
69281;SHT31;56392;51.082;17.080;2024-02-23T23:20:48;6.88;96.55
69281;SHT31;56392;51.082;17.080;2024-02-23T23:26:11;6.88;96.52
69281;SHT31;56392;51.082;17.080;2024-02-23T23:31:34;6.77;96.46
69281;SHT31;56392;51.082;17.080;2024-02-23T23:36:59;6.76;96.56
69281;SHT31;56392;51.082;17.080;2024-02-23T23:42:22;6.73;96.62
69281;SHT31;56392;51.082;17.080;2024-02-23T23:47:45;6.84;96.83
69281;SHT31;56392;51.082;17.080;2024-02-23T23:53:09;6.83;96.74
69281;SHT31;56392;51.082;17.080;2024-02-23T23:58:33;6.81;96.76
